createdAt,value
2022-11-16T00:04:25.813Z,4.05
2022-11-16T00:09:33.247Z,4.40
2022-11-16T00:14:37.532Z,4.63
2022-11-16T00:19:42.404Z,4.28
2022-11-16T00:24:45.985Z,4.10
2022-11-16T00:29:49.306Z,3.85
2022-11-16T00:34:54.013Z,4.90
2022-11-16T00:39:57.355Z,5.43
2022-11-16T00:45:00.655Z,4.93
2022-11-16T00:50:05.958Z,4.53
2022-11-16T00:55:09.639Z,5.28
2022-11-16T01:00:13.889Z,4.70
2022-11-16T01:05:18.817Z,4.90
2022-11-16T01:10:24.237Z,4.15
2022-11-16T01:15:28.890Z,3.80
2022-11-16T01:20:33.726Z,3.90
2022-11-16T01:25:37.014Z,3.35
2022-11-16T01:30:40.322Z,3.53
2022-11-16T01:35:45.983Z,3.95
2022-11-16T01:40:51.153Z,4.55
2022-11-16T01:45:55.263Z,4.05
2022-11-16T01:51:00.317Z,3.50
2022-11-16T01:56:03.748Z,3.95
2022-11-16T02:01:07.427Z,4.15
2022-11-16T02:06:35.236Z,3.53
2022-11-16T02:11:54.308Z,3.67
2022-11-16T02:17:07.244Z,2.88
2022-11-16T02:22:26.781Z,2.47
2022-11-16T02:27:49.269Z,2.88
2022-11-16T02:33:02.278Z,3.92
2022-11-16T02:38:12.166Z,3.67
2022-11-16T02:43:20.617Z,4.25
2022-11-16T02:48:28.824Z,3.45
2022-11-16T02:53:38.166Z,2.50
2022-11-16T02:58:41.409Z,2.78
2022-11-16T03:03:53.616Z,2.85
2022-11-16T03:09:02.838Z,2.50
2022-11-16T03:14:10.826Z,2.63
2022-11-16T03:19:20.929Z,2.50
2022-11-16T03:24:24.366Z,2.83
2022-11-16T03:29:32.097Z,2.80
2022-11-16T03:34:40.431Z,3.05
2022-11-16T03:39:45.422Z,2.88
2022-11-16T03:44:50.825Z,2.90
2022-11-16T03:49:56.556Z,2.47
2022-11-16T03:54:59.875Z,2.45
2022-11-16T04:00:03.342Z,2.63
2022-11-16T04:05:25.713Z,3.10
2022-11-16T04:10:46.058Z,3.10
2022-11-16T04:16:06.836Z,3.00
2022-11-16T04:21:36.958Z,1.45
2022-11-16T04:26:59.357Z,1.30
2022-11-16T04:32:20.953Z,1.00
2022-11-16T04:43:10.242Z,1.20
2022-11-16T04:48:15.288Z,1.25
2022-11-16T04:53:20.433Z,1.02
2022-11-16T04:58:24.717Z,2.40
2022-11-16T05:03:27.991Z,2.75
2022-11-16T05:08:33.710Z,2.53
2022-11-16T05:13:37.167Z,2.38
2022-11-16T05:18:40.503Z,2.55
2022-11-16T05:24:01.875Z,2.30
2022-11-16T05:29:05.266Z,1.52
2022-11-16T05:34:09.606Z,1.30
2022-11-16T05:39:14.328Z,1.23
2022-11-16T05:44:18.649Z,1.05
2022-11-16T05:49:21.949Z,1.08
2022-11-16T05:54:28.955Z,1.30
2022-11-16T05:59:32.230Z,0.85
2022-11-16T06:04:36.687Z,1.15
2022-11-16T06:09:41.414Z,1.60
2022-11-16T06:14:47.222Z,1.95
2022-11-16T06:19:50.769Z,1.98
2022-11-16T06:24:55.395Z,2.13
2022-11-16T06:30:00.960Z,2.55
2022-11-16T06:35:04.208Z,2.25
2022-11-16T06:40:10.738Z,1.77
2022-11-16T06:45:14.073Z,1.80
2022-11-16T06:50:19.319Z,1.67
2022-11-16T06:55:24.048Z,1.70
2022-11-16T07:00:27.893Z,1.58
2022-11-16T07:05:31.205Z,1.48
2022-11-16T07:10:35.963Z,1.90
2022-11-16T07:15:39.134Z,1.52
2022-11-16T07:20:42.374Z,2.20
2022-11-16T07:25:47.408Z,1.92
2022-11-16T07:30:50.921Z,1.52
2022-11-16T07:35:54.231Z,2.15
2022-11-16T07:41:02.526Z,1.65
2022-11-16T07:46:44.521Z,2.03
2022-11-16T07:51:29.704Z,1.70
2022-11-16T07:56:34.298Z,3.38
2022-11-16T08:01:37.602Z,3.10
2022-11-16T08:06:40.870Z,2.25
2022-11-16T08:11:45.416Z,2.50
2022-11-16T08:16:48.945Z,2.30
2022-11-16T08:21:52.481Z,1.88
2022-11-16T08:26:58.859Z,1.90
2022-11-16T08:32:02.231Z,1.45
2022-11-16T08:37:05.465Z,2.10
2022-11-16T08:42:10.152Z,1.67
2022-11-16T08:47:13.459Z,1.48
2022-11-16T08:52:16.903Z,1.73
2022-11-16T08:57:21.459Z,1.80
2022-11-16T09:02:25.772Z,0.90
2022-11-16T09:07:29.623Z,0.70
2022-11-16T09:12:34.775Z,0.70
2022-11-16T09:17:38.133Z,1.00
2022-11-16T09:22:41.981Z,1.10
2022-11-16T09:27:46.714Z,0.80
2022-11-16T09:32:49.982Z,0.80
2022-11-16T09:37:53.233Z,0.70
2022-11-16T09:43:04.420Z,0.68
2022-11-16T09:48:12.481Z,0.43
2022-11-16T09:53:33.326Z,0.50
2022-11-16T09:58:44.137Z,0.40
2022-11-16T10:03:50.563Z,0.50
2022-11-16T10:08:57.119Z,0.45
2022-11-16T10:14:17.174Z,0.77
2022-11-16T10:19:26.168Z,0.38
2022-11-16T10:24:47.764Z,0.70
2022-11-16T10:30:00.764Z,0.40
2022-11-16T10:35:13.408Z,0.40
2022-11-16T10:40:23.494Z,0.43
2022-11-16T10:45:34.467Z,0.82
2022-11-16T10:50:41.141Z,0.50
2022-11-16T10:55:44.435Z,0.52
2022-11-16T11:00:52.066Z,0.70
2022-11-16T11:05:56.331Z,0.60
2022-11-16T11:11:22.807Z,0.50
2022-11-16T11:16:27.552Z,0.40
2022-11-16T11:21:30.974Z,0.30
2022-11-16T11:26:37.963Z,0.50
2022-11-16T11:31:46.327Z,0.57
2022-11-16T11:36:53.591Z,0.55
2022-11-16T11:42:07.231Z,0.52
2022-11-16T11:53:03.413Z,0.30
2022-11-16T11:58:08.949Z,0.30
2022-11-16T12:03:44.669Z,0.57
2022-11-16T12:09:26.490Z,0.77
2022-11-16T12:14:46.355Z,0.65
2022-11-16T12:20:05.977Z,0.45
2022-11-16T12:25:22.051Z,0.30
2022-11-16T12:30:27.037Z,0.28
2022-11-16T12:35:41.646Z,0.50
2022-11-16T12:41:01.494Z,0.45
2022-11-16T12:46:18.439Z,0.50
2022-11-16T12:51:33.863Z,0.50
2022-11-16T12:56:49.287Z,0.30
2022-11-16T13:02:05.480Z,0.30
2022-11-16T13:07:13.773Z,0.95
2022-11-16T13:12:23.564Z,0.50
2022-11-16T13:17:30.645Z,0.45
2022-11-16T13:22:38.138Z,0.28
2022-11-16T13:27:46.421Z,0.32
2022-11-16T13:33:05.013Z,0.40
2022-11-16T13:38:17.268Z,0.45
2022-11-16T13:43:21.105Z,0.50
2022-11-16T13:48:28.777Z,0.60
2022-11-16T13:54:37.880Z,0.57
2022-11-16T13:58:59.580Z,0.60
2022-11-16T14:04:41.373Z,0.50
2022-11-16T14:09:47.235Z,0.35
2022-11-16T14:15:16.214Z,0.30
2022-11-16T14:20:33.769Z,0.43
2022-11-16T14:25:47.085Z,0.60
2022-11-16T14:31:01.466Z,0.68
2022-11-16T14:36:10.795Z,0.50
2022-11-16T14:41:22.135Z,0.68
2022-11-16T14:46:29.564Z,0.40
2022-11-16T14:51:36.870Z,0.40
2022-11-16T14:56:57.324Z,0.40
2022-11-16T15:02:06.821Z,0.40
2022-11-16T15:07:14.564Z,0.40
2022-11-16T15:12:37.110Z,0.57
2022-11-16T15:17:42.813Z,0.47
2022-11-16T15:22:49.085Z,0.70
2022-11-16T15:27:52.642Z,0.40
2022-11-16T15:32:56.613Z,0.45
2022-11-16T15:38:07.169Z,0.40
2022-11-16T15:43:13.623Z,0.65
2022-11-16T15:48:20.771Z,0.50
2022-11-16T15:53:40.231Z,0.70
2022-11-16T15:58:44.434Z,0.43
2022-11-16T16:03:56.101Z,0.40
2022-11-16T16:09:07.418Z,0.60
2022-11-16T16:14:13.012Z,0.52
2022-11-16T16:19:36.298Z,0.50
2022-11-16T16:24:43.334Z,1.10
2022-11-16T16:29:49.209Z,0.80
2022-11-16T16:34:52.641Z,1.13
2022-11-16T16:39:57.340Z,2.03
2022-11-16T16:45:05.193Z,2.13
2022-11-16T16:50:08.845Z,1.90
2022-11-16T16:55:13.782Z,1.70
2022-11-16T17:00:21.345Z,1.88
2022-11-16T17:05:25.775Z,2.03
2022-11-16T17:10:30.442Z,1.60
2022-11-16T17:15:33.779Z,1.60
2022-11-16T17:20:37.597Z,1.50
2022-11-16T17:25:51.074Z,1.23
2022-11-16T17:30:54.403Z,0.73
2022-11-16T17:35:59.029Z,0.65
2022-11-16T17:41:10.303Z,0.70
2022-11-16T17:46:15.949Z,1.45
2022-11-16T17:51:21.894Z,0.73
2022-11-16T17:56:28.539Z,1.00
2022-11-16T18:01:32.112Z,1.27
2022-11-16T18:06:35.749Z,1.02
2022-11-16T18:11:42.686Z,1.70
2022-11-16T18:16:48.269Z,1.42
2022-11-16T18:21:51.635Z,2.08
2022-11-16T18:26:59.373Z,4.07
2022-11-16T18:32:02.851Z,4.22
2022-11-16T18:37:07.372Z,2.47
2022-11-16T18:42:14.122Z,3.20
2022-11-16T18:47:20.775Z,2.85
2022-11-16T18:52:26.658Z,2.95
2022-11-16T18:57:31.734Z,2.78
2022-11-16T19:02:38.365Z,2.58
2022-11-16T19:07:41.933Z,2.25
2022-11-16T19:12:46.596Z,2.25
2022-11-16T19:18:19.409Z,2.72
2022-11-16T19:23:14.888Z,1.98
2022-11-16T19:28:19.541Z,2.10
2022-11-16T19:33:22.893Z,2.13
2022-11-16T19:38:26.214Z,2.58
2022-11-16T19:43:30.921Z,2.75
2022-11-16T19:48:34.638Z,2.53
2022-11-16T19:53:39.732Z,1.50
2022-11-16T19:58:44.716Z,1.48
2022-11-16T20:03:50.175Z,2.08
2022-11-16T20:08:56.684Z,2.58
2022-11-16T20:14:01.827Z,2.42
2022-11-16T20:19:05.480Z,1.80
2022-11-16T20:24:10.985Z,2.50
2022-11-16T20:29:17.041Z,1.93
2022-11-16T20:34:22.203Z,1.67
2022-11-16T20:39:25.576Z,2.25
2022-11-16T20:44:31.106Z,1.83
2022-11-16T20:49:34.530Z,2.20
2022-11-16T20:54:37.868Z,3.20
2022-11-16T20:59:42.501Z,3.53
2022-11-16T21:04:46.016Z,3.30
2022-11-16T21:10:06.483Z,3.30
2022-11-16T21:15:11.760Z,3.57
2022-11-16T21:20:31.255Z,3.53
2022-11-16T21:25:34.612Z,2.88
2022-11-16T21:30:39.391Z,3.38
2022-11-16T21:35:42.701Z,2.67
2022-11-16T21:40:46.080Z,3.28
2022-11-16T21:45:51.234Z,2.72
2022-11-16T21:51:01.456Z,2.88
2022-11-16T21:56:05.763Z,2.60
2022-11-16T22:01:11.853Z,2.23
2022-11-16T22:06:34.846Z,2.40
2022-11-16T22:11:38.181Z,2.22
2022-11-16T22:16:43.046Z,2.70
2022-11-16T22:21:46.282Z,3.13
2022-11-16T22:26:53.202Z,2.75
2022-11-16T22:31:57.872Z,2.65
2022-11-16T22:37:01.206Z,2.88
2022-11-16T22:42:04.929Z,2.55
2022-11-16T22:47:10.572Z,2.88
2022-11-16T22:52:13.881Z,2.40
2022-11-16T22:57:17.108Z,2.72
2022-11-16T23:02:21.732Z,2.47
2022-11-16T23:07:25.461Z,3.00
2022-11-16T23:12:46.513Z,2.63
2022-11-16T23:17:51.162Z,3.13
2022-11-16T23:23:11.614Z,2.53
2022-11-16T23:28:16.925Z,2.90
2022-11-16T23:33:42.682Z,2.58
2022-11-16T23:38:49.492Z,2.65
2022-11-16T23:44:01.755Z,3.08
2022-11-16T23:49:06.367Z,3.70
2022-11-16T23:54:09.680Z,3.40
2022-11-16T23:59:12.868Z,3.40
